createdAt,value
2023-08-07T00:01:46.698Z,100268.03
2023-08-07T00:04:13.388Z,100233.66
2023-08-07T00:06:39.877Z,100281.94
2023-08-07T00:09:06.416Z,100248.41
2023-08-07T00:11:32.887Z,100271.03
2023-08-07T00:14:00.485Z,100274.56
2023-08-07T00:16:27.195Z,100269.59
2023-08-07T00:18:57.133Z,100272.06
2023-08-07T00:21:24.285Z,100272.31
2023-08-07T00:23:51.985Z,100277.00
2023-08-07T00:26:19.170Z,100239.53
2023-08-07T00:28:45.923Z,100271.34
2023-08-07T00:31:13.510Z,100285.03
2023-08-07T00:33:40.216Z,100280.88
2023-08-07T00:36:06.842Z,100279.41
2023-08-07T00:38:33.385Z,100273.59
2023-08-07T00:41:01.035Z,100233.38
2023-08-07T00:43:27.651Z,100269.22
2023-08-07T00:45:54.753Z,100268.16
2023-08-07T00:48:21.959Z,100277.91
2023-08-07T00:50:50.011Z,100170.78
2023-08-07T00:53:16.995Z,100247.72
2023-08-07T00:55:43.971Z,100277.72
2023-08-07T00:58:11.695Z,100279.41
2023-08-07T01:00:38.392Z,100223.28
2023-08-07T01:03:07.940Z,100268.59
2023-08-07T01:05:35.729Z,100267.59
2023-08-07T01:08:04.175Z,100272.13
2023-08-07T01:10:56.820Z,100268.84
2023-08-07T01:13:50.026Z,100269.88
2023-08-07T01:16:38.961Z,100255.75
2023-08-07T01:19:12.007Z,100260.09
2023-08-07T01:21:38.803Z,100243.00
2023-08-07T01:24:05.586Z,100263.59
2023-08-07T01:26:33.586Z,100260.63
2023-08-07T01:29:13.120Z,100258.97
2023-08-07T01:31:41.813Z,100239.19
2023-08-07T01:34:09.816Z,100212.75
2023-08-07T01:36:38.371Z,100246.06
2023-08-07T01:39:08.027Z,100229.81
2023-08-07T01:41:37.004Z,100220.00
2023-08-07T01:44:04.937Z,100166.91
2023-08-07T01:46:31.583Z,100245.78
2023-08-07T01:48:58.103Z,100220.41
2023-08-07T01:51:24.597Z,100228.31
2023-08-07T01:53:51.224Z,100247.59
2023-08-07T01:56:17.764Z,100248.63
2023-08-07T01:58:44.241Z,100198.81
2023-08-07T02:01:10.782Z,100246.34
2023-08-07T02:03:37.380Z,100247.38
2023-08-07T02:06:04.450Z,100212.28
2023-08-07T02:08:30.932Z,100242.16
2023-08-07T02:10:57.978Z,100193.00
2023-08-07T02:13:24.579Z,100246.09
2023-08-07T02:15:51.061Z,100218.84
2023-08-07T02:18:17.602Z,100235.25
2023-08-07T02:20:44.899Z,100234.66
2023-08-07T02:23:11.380Z,100187.38
2023-08-07T02:25:37.822Z,100240.25
2023-08-07T02:28:04.473Z,100241.06
2023-08-07T02:30:32.267Z,100232.31
2023-08-07T02:32:58.783Z,100222.38
2023-08-07T02:35:25.695Z,100211.25
2023-08-07T02:37:52.167Z,100236.91
2023-08-07T02:40:20.124Z,100232.97
2023-08-07T02:42:46.726Z,100233.38
2023-08-07T02:45:22.233Z,100194.91
2023-08-07T02:47:48.894Z,100223.88
2023-08-07T02:50:15.762Z,100222.22
2023-08-07T02:52:44.368Z,100235.31
2023-08-07T02:55:12.351Z,100223.69
2023-08-07T02:57:38.821Z,100221.72
2023-08-07T03:00:06.097Z,100202.97
2023-08-07T03:02:32.583Z,100236.06
2023-08-07T03:04:59.282Z,100213.00
2023-08-07T03:07:26.158Z,100214.66
2023-08-07T03:09:52.610Z,100232.81
2023-08-07T03:12:19.030Z,100236.78
2023-08-07T03:14:45.606Z,100238.44
2023-08-07T03:17:12.074Z,100221.03
2023-08-07T03:19:38.538Z,100192.09
2023-08-07T03:22:05.142Z,100187.53
2023-08-07T03:24:31.852Z,100172.13
2023-08-07T03:26:58.402Z,100229.56
2023-08-07T03:29:24.938Z,100206.50
2023-08-07T03:31:51.526Z,100221.66
2023-08-07T03:34:18.063Z,100192.75
2023-08-07T03:36:46.205Z,100185.22
2023-08-07T03:39:13.353Z,100230.66
2023-08-07T03:41:39.823Z,100221.09
2023-08-07T03:44:06.588Z,100210.06
2023-08-07T03:46:33.322Z,100228.41
2023-08-07T03:48:59.829Z,100206.94
2023-08-07T03:51:26.383Z,100227.75
2023-08-07T03:53:52.866Z,100230.25
2023-08-07T03:56:19.467Z,100202.41
2023-08-07T03:58:45.981Z,100213.00
2023-08-07T04:01:12.596Z,100235.47
2023-08-07T04:03:39.621Z,100240.03
2023-08-07T04:06:06.961Z,100233.63
2023-08-07T04:08:33.716Z,100228.03
2023-08-07T04:11:01.619Z,100232.38
2023-08-07T04:13:29.259Z,100218.72
2023-08-07T04:15:56.184Z,100184.13
2023-08-07T04:18:23.134Z,100215.78
2023-08-07T04:20:53.754Z,100224.34
2023-08-07T04:23:20.753Z,100227.88
2023-08-07T04:25:51.000Z,100227.66
2023-08-07T04:28:17.732Z,100227.47
2023-08-07T04:30:45.081Z,100217.31
2023-08-07T04:33:11.964Z,100216.69
2023-08-07T04:35:38.458Z,100229.38
2023-08-07T04:38:05.080Z,100191.53
2023-08-07T04:40:31.727Z,100226.09
2023-08-07T04:42:58.509Z,100227.53
2023-08-07T04:45:25.114Z,100226.31
2023-08-07T04:47:51.955Z,100177.59
2023-08-07T04:50:19.003Z,100219.88
2023-08-07T04:52:45.795Z,100183.69
2023-08-07T04:55:12.697Z,100179.13
2023-08-07T04:57:39.247Z,100220.97
2023-08-07T05:00:06.806Z,100234.50
2023-08-07T05:02:33.711Z,100233.91
2023-08-07T05:05:00.624Z,100176.31
2023-08-07T05:07:27.120Z,100216.84
2023-08-07T05:09:54.605Z,100227.28
2023-08-07T05:12:21.115Z,100232.94
2023-08-07T05:14:47.595Z,100237.31
2023-08-07T05:17:14.917Z,100227.16
2023-08-07T05:19:41.408Z,100237.78
2023-08-07T05:22:07.853Z,100229.25
2023-08-07T05:24:40.241Z,100173.53
2023-08-07T05:27:09.304Z,100211.78
2023-08-07T05:29:44.373Z,100230.09
2023-08-07T05:32:12.452Z,100234.69
2023-08-07T05:34:39.396Z,100228.69
2023-08-07T05:37:07.121Z,100228.69
2023-08-07T05:39:34.015Z,100232.22
2023-08-07T05:42:00.825Z,100237.81
2023-08-07T05:44:27.435Z,100222.88
2023-08-07T05:46:53.892Z,100235.75
2023-08-07T05:49:23.956Z,100261.94
2023-08-07T05:51:52.045Z,100208.56
2023-08-07T05:54:18.539Z,100185.28
2023-08-07T05:56:44.989Z,100244.09
2023-08-07T05:59:11.635Z,100253.84
2023-08-07T06:01:38.146Z,100246.44
2023-08-07T06:04:05.009Z,100165.97
2023-08-07T06:06:35.605Z,100202.09
2023-08-07T06:09:03.658Z,100248.72
2023-08-07T06:11:30.268Z,100252.84
2023-08-07T06:13:57.122Z,100224.16
2023-08-07T06:16:23.618Z,100253.66
2023-08-07T06:18:50.124Z,100249.75
2023-08-07T06:21:16.980Z,100220.63
2023-08-07T06:23:43.433Z,100259.31
2023-08-07T06:26:09.890Z,100255.75
2023-08-07T06:28:37.692Z,100255.97
2023-08-07T06:31:05.585Z,100259.69
2023-08-07T06:33:32.363Z,100261.38
2023-08-07T06:35:59.189Z,100259.06
2023-08-07T06:38:25.991Z,100256.16
2023-08-07T06:40:52.792Z,100257.63
2023-08-07T06:43:19.571Z,100263.84
2023-08-07T06:45:56.571Z,100254.91
2023-08-07T06:48:23.571Z,100241.63
2023-08-07T06:50:51.645Z,100266.97
2023-08-07T06:53:18.663Z,100255.31
2023-08-07T06:55:45.700Z,100275.25
2023-08-07T06:58:12.259Z,100254.47
2023-08-07T07:00:38.811Z,100274.00
2023-08-07T07:03:06.022Z,100298.94
2023-08-07T07:05:33.825Z,100296.06
2023-08-07T07:08:00.654Z,100271.94
2023-08-07T07:10:27.094Z,100272.53
2023-08-07T07:12:53.582Z,100278.16
2023-08-07T07:15:20.088Z,100243.88
2023-08-07T07:17:46.841Z,100232.03
2023-08-07T07:20:13.693Z,100287.28
2023-08-07T07:22:40.164Z,100291.88
2023-08-07T07:25:07.168Z,100302.88
2023-08-07T07:27:33.649Z,100320.81
2023-08-07T07:30:00.208Z,100312.09
2023-08-07T07:32:27.372Z,100314.81
2023-08-07T07:34:53.941Z,100309.31
2023-08-07T07:37:20.451Z,100292.44
2023-08-07T07:39:46.961Z,100275.97
2023-08-07T07:42:13.490Z,100273.66
2023-08-07T07:44:40.794Z,100260.75
2023-08-07T07:47:09.636Z,100250.56
2023-08-07T07:49:38.021Z,100244.50
2023-08-07T07:52:04.985Z,100285.97
2023-08-07T07:54:31.575Z,100289.09
2023-08-07T07:56:58.462Z,100283.06
2023-08-07T07:59:25.147Z,100271.25
2023-08-07T08:01:52.458Z,100305.97
2023-08-07T08:04:20.519Z,100316.63
2023-08-07T08:06:49.405Z,100314.53
2023-08-07T08:09:16.704Z,100327.41
2023-08-07T08:11:43.387Z,100341.16
2023-08-07T08:14:10.382Z,100334.25
2023-08-07T08:16:36.897Z,100332.97
2023-08-07T08:19:03.717Z,100345.19
2023-08-07T08:21:31.938Z,100336.63
2023-08-07T08:23:58.435Z,100339.06
2023-08-07T08:26:24.967Z,100346.28
2023-08-07T08:28:51.391Z,100339.59
2023-08-07T08:31:17.896Z,100328.13
2023-08-07T08:33:44.436Z,100360.16
2023-08-07T08:36:10.940Z,100352.69
2023-08-07T08:38:37.396Z,100311.44
2023-08-07T08:41:04.895Z,100351.47
2023-08-07T08:43:35.639Z,100363.94
2023-08-07T08:46:02.298Z,100357.91
2023-08-07T08:48:32.470Z,100374.94
2023-08-07T08:50:59.338Z,100370.44
2023-08-07T08:53:26.527Z,100379.09
2023-08-07T08:55:53.260Z,100387.59
2023-08-07T08:58:22.238Z,100377.00
2023-08-07T09:00:49.565Z,100377.81
2023-08-07T09:03:16.308Z,100371.84
2023-08-07T09:05:43.393Z,100381.03
2023-08-07T09:08:11.080Z,100386.28
2023-08-07T09:10:38.999Z,100380.97
2023-08-07T09:13:12.018Z,100377.94
2023-08-07T09:15:40.809Z,100378.84
2023-08-07T09:18:08.891Z,100371.38
2023-08-07T09:20:37.557Z,100371.16
2023-08-07T09:23:04.055Z,100378.19
2023-08-07T09:25:32.261Z,100389.63
2023-08-07T09:27:58.882Z,100384.72
2023-08-07T09:30:29.994Z,100392.72
2023-08-07T09:33:03.496Z,100341.69
2023-08-07T09:35:32.256Z,100364.84
2023-08-07T09:37:59.519Z,100363.69
2023-08-07T09:40:26.112Z,100325.41
2023-08-07T09:42:54.453Z,100383.47
2023-08-07T09:45:25.696Z,100370.66
2023-08-07T09:48:03.069Z,100386.41
2023-08-07T09:50:30.892Z,100393.06
2023-08-07T09:52:59.147Z,100378.06
2023-08-07T09:55:26.860Z,100383.06
2023-08-07T09:57:54.050Z,100396.13
2023-08-07T10:00:21.257Z,100387.66
2023-08-07T10:05:18.666Z,100412.72
2023-08-07T10:07:45.259Z,100390.81
2023-08-07T10:10:12.015Z,100420.63
2023-08-07T10:12:42.254Z,100384.94
2023-08-07T10:15:09.512Z,100423.13
2023-08-07T10:17:36.122Z,100400.28
2023-08-07T10:20:02.746Z,100415.69
2023-08-07T10:22:31.908Z,100410.41
2023-08-07T10:25:01.946Z,100397.28
2023-08-07T10:27:32.295Z,100414.34
2023-08-07T10:30:01.241Z,100412.13
2023-08-07T10:32:28.910Z,100415.03
2023-08-07T10:34:55.674Z,100368.78
2023-08-07T10:37:44.742Z,100389.78
2023-08-07T10:40:13.693Z,100386.16
2023-08-07T10:43:14.134Z,100414.44
2023-08-07T10:45:40.829Z,100398.16
2023-08-07T10:48:09.528Z,100409.13
2023-08-07T10:50:49.689Z,100407.16
2023-08-07T10:53:31.129Z,100411.59
2023-08-07T10:56:01.072Z,100393.97
2023-08-07T10:58:35.460Z,100405.19
2023-08-07T11:01:23.293Z,100397.44
2023-08-07T11:04:14.284Z,100420.19
2023-08-07T11:06:42.599Z,100383.53
2023-08-07T11:09:10.780Z,100429.22
2023-08-07T11:11:45.998Z,100441.59
2023-08-07T11:14:17.282Z,100442.00
2023-08-07T11:16:45.308Z,100445.66
2023-08-07T11:19:14.133Z,100439.78
2023-08-07T11:21:44.097Z,100391.34
2023-08-07T11:24:14.472Z,100441.13
2023-08-07T11:26:43.687Z,100421.91
2023-08-07T11:29:10.491Z,100422.00
2023-08-07T11:31:37.346Z,100437.72
2023-08-07T11:34:04.056Z,100450.25
2023-08-07T11:36:30.907Z,100383.91
2023-08-07T11:38:57.676Z,100444.28
2023-08-07T11:41:24.287Z,100414.28
2023-08-07T11:43:50.774Z,100443.81
2023-08-07T11:46:17.347Z,100462.91
2023-08-07T11:48:48.460Z,100459.22
2023-08-07T11:51:15.229Z,100443.34
2023-08-07T11:53:43.033Z,100435.19
2023-08-07T11:56:16.949Z,100450.22
2023-08-07T11:58:48.642Z,100430.28
2023-08-07T12:01:15.502Z,100454.97
2023-08-07T12:04:09.522Z,100431.28
2023-08-07T12:06:37.600Z,100485.78
2023-08-07T12:09:04.506Z,100509.78
2023-08-07T12:11:31.793Z,100499.47
2023-08-07T12:14:01.701Z,100463.88
2023-08-07T12:16:33.944Z,100466.22
2023-08-07T12:19:00.379Z,100489.94
2023-08-07T12:21:27.224Z,100512.19
2023-08-07T12:23:56.828Z,100473.22
2023-08-07T12:26:23.491Z,100457.03
2023-08-07T12:28:50.826Z,100483.63
2023-08-07T12:31:18.742Z,100450.31
2023-08-07T12:33:45.445Z,100497.16
2023-08-07T12:38:44.569Z,100479.56
2023-08-07T12:41:44.834Z,100492.28
2023-08-07T12:43:57.560Z,100462.09
2023-08-07T12:48:53.442Z,100490.56
2023-08-07T12:51:20.031Z,100494.13
2023-08-07T12:53:46.636Z,100491.59
2023-08-07T12:56:13.424Z,100461.84
2023-08-07T12:58:42.331Z,100481.56
2023-08-07T13:01:10.196Z,100477.38
2023-08-07T13:03:36.665Z,100509.66
2023-08-07T13:06:06.573Z,100498.00
2023-08-07T13:08:34.612Z,100484.91
2023-08-07T13:11:01.860Z,100496.84
2023-08-07T13:13:31.930Z,100491.84
2023-08-07T13:15:58.332Z,100498.50
2023-08-07T13:18:25.592Z,100478.72
2023-08-07T13:20:51.984Z,100472.44
2023-08-07T13:23:18.435Z,100495.66
2023-08-07T13:25:44.869Z,100505.38
2023-08-07T13:28:11.333Z,100502.59
2023-08-07T13:30:38.228Z,100457.00
2023-08-07T13:33:05.060Z,100475.06
2023-08-07T13:35:33.979Z,100516.63
2023-08-07T13:38:00.921Z,100496.19
2023-08-07T13:40:27.494Z,100499.72
2023-08-07T13:42:54.356Z,100496.44
2023-08-07T13:45:21.198Z,100535.53
2023-08-07T13:47:47.696Z,100500.47
2023-08-07T13:50:14.296Z,100540.22
2023-08-07T13:52:40.852Z,100525.63
2023-08-07T13:55:09.964Z,100556.53
2023-08-07T13:57:36.617Z,100537.59
2023-08-07T14:00:03.979Z,100568.13
2023-08-07T14:02:31.406Z,100513.38
2023-08-07T14:04:58.496Z,100575.03
2023-08-07T14:07:24.991Z,100552.81
2023-08-07T14:09:51.438Z,100561.06
2023-08-07T14:12:17.953Z,100570.03
2023-08-07T14:14:44.505Z,100533.25
2023-08-07T14:17:10.954Z,100574.16
2023-08-07T14:19:37.448Z,100555.88
2023-08-07T14:22:04.114Z,100572.13
2023-08-07T14:24:30.813Z,100555.59
2023-08-07T14:26:57.254Z,100606.03
2023-08-07T14:29:23.758Z,100575.25
2023-08-07T14:31:50.207Z,100519.09
2023-08-07T14:34:16.914Z,100563.63
2023-08-07T14:36:43.478Z,100591.09
2023-08-07T14:39:10.006Z,100584.38
2023-08-07T14:41:36.535Z,100480.84
2023-08-07T14:44:03.071Z,100549.75
2023-08-07T14:46:29.619Z,100574.06
2023-08-07T14:48:56.777Z,100579.84
2023-08-07T14:51:23.311Z,100587.00
2023-08-07T14:53:50.161Z,100616.66
2023-08-07T14:56:16.675Z,100616.75
2023-08-07T14:58:43.123Z,100628.69
2023-08-07T15:01:09.594Z,100626.63
2023-08-07T15:03:36.092Z,100598.97
2023-08-07T15:06:02.669Z,100622.81
2023-08-07T15:08:29.139Z,100649.06
2023-08-07T15:10:55.651Z,100644.50
2023-08-07T15:13:22.169Z,100601.81
2023-08-07T15:15:48.738Z,100647.75
2023-08-07T15:18:15.374Z,100651.88
2023-08-07T15:20:41.910Z,100651.75
2023-08-07T15:23:08.577Z,100643.78
2023-08-07T15:25:35.123Z,100620.91
2023-08-07T15:28:02.468Z,100613.75
2023-08-07T15:30:30.154Z,100631.81
2023-08-07T15:32:57.393Z,100639.72
2023-08-07T15:35:24.403Z,100628.44
2023-08-07T15:37:50.960Z,100675.91
2023-08-07T15:40:17.494Z,100671.75
2023-08-07T15:42:46.557Z,100632.91
2023-08-07T15:45:14.244Z,100668.97
2023-08-07T15:47:40.991Z,100607.63
2023-08-07T15:50:07.825Z,100649.88
2023-08-07T15:52:34.359Z,100651.34
2023-08-07T15:55:00.965Z,100666.75
2023-08-07T15:57:27.414Z,100662.75
2023-08-07T15:59:54.071Z,100674.88
2023-08-07T16:02:20.638Z,100660.75
2023-08-07T16:04:47.220Z,100644.03
2023-08-07T16:07:13.811Z,100663.81
2023-08-07T16:09:40.244Z,100642.06
2023-08-07T16:12:07.233Z,100663.28
2023-08-07T16:14:36.357Z,100664.41
2023-08-07T16:17:05.752Z,100667.69
2023-08-07T16:19:32.617Z,100672.59
2023-08-07T16:21:59.063Z,100653.09
2023-08-07T16:24:25.561Z,100645.44
2023-08-07T16:26:52.028Z,100673.50
2023-08-07T16:29:18.857Z,100661.88
2023-08-07T16:31:45.416Z,100653.81
2023-08-07T16:34:12.051Z,100653.88
2023-08-07T16:36:38.949Z,100671.00
2023-08-07T16:39:05.391Z,100654.72
2023-08-07T16:41:31.999Z,100674.50
2023-08-07T16:43:58.582Z,100611.16
2023-08-07T16:46:25.076Z,100640.59
2023-08-07T16:48:51.656Z,100647.63
2023-08-07T16:51:19.878Z,100647.63
2023-08-07T16:53:49.060Z,100615.81
2023-08-07T16:56:16.004Z,100656.16
2023-08-07T16:58:44.984Z,100666.00
2023-08-07T17:01:11.514Z,100668.56
2023-08-07T17:03:38.030Z,100646.31
2023-08-07T17:06:04.654Z,100666.22
2023-08-07T17:08:31.335Z,100671.69
2023-08-07T17:10:57.760Z,100633.53
2023-08-07T17:13:24.733Z,100645.63
2023-08-07T17:15:51.398Z,100650.16
2023-08-07T17:18:18.060Z,100661.63
2023-08-07T17:20:44.754Z,100671.81
2023-08-07T17:23:11.369Z,100656.44
2023-08-07T17:25:37.814Z,100646.25
2023-08-07T17:28:04.898Z,100668.16
2023-08-07T17:30:31.448Z,100629.94
2023-08-07T17:32:58.179Z,100659.22
2023-08-07T17:35:25.290Z,100689.88
2023-08-07T17:37:51.804Z,100677.50
2023-08-07T17:40:18.344Z,100674.66
2023-08-07T17:42:44.919Z,100616.66
2023-08-07T17:45:13.368Z,100679.03
2023-08-07T17:47:42.354Z,100647.94
2023-08-07T17:50:10.410Z,100670.75
2023-08-07T17:52:38.981Z,100588.88
2023-08-07T17:55:06.405Z,100669.50
2023-08-07T17:57:33.153Z,100669.16
2023-08-07T17:59:59.700Z,100637.66
2023-08-07T18:02:26.352Z,100631.25
2023-08-07T18:04:52.968Z,100616.00
2023-08-07T18:07:19.629Z,100665.13
2023-08-07T18:09:46.160Z,100650.00
2023-08-07T18:12:12.715Z,100662.44
2023-08-07T18:14:39.595Z,100677.63
2023-08-07T18:17:06.443Z,100660.16
2023-08-07T18:19:33.058Z,100651.00
2023-08-07T18:22:00.901Z,100670.84
2023-08-07T18:24:27.975Z,100674.75
2023-08-07T18:26:54.705Z,100671.31
2023-08-07T18:29:21.285Z,100670.03
2023-08-07T18:31:48.296Z,100659.06
2023-08-07T18:34:14.778Z,100655.78
2023-08-07T18:36:41.836Z,100659.34
2023-08-07T18:39:08.441Z,100654.03
2023-08-07T18:41:35.186Z,100658.28
2023-08-07T18:44:03.102Z,100596.84
2023-08-07T18:46:29.771Z,100668.56
2023-08-07T18:48:56.339Z,100669.09
2023-08-07T18:51:22.902Z,100667.59
2023-08-07T18:53:49.399Z,100657.41
2023-08-07T18:56:15.889Z,100628.59
2023-08-07T18:58:42.434Z,100651.19
2023-08-07T19:01:09.518Z,100647.81
2023-08-07T19:03:36.238Z,100637.75
2023-08-07T19:06:06.255Z,100637.75
2023-08-07T19:08:36.016Z,100602.09
2023-08-07T19:11:02.624Z,100651.19
2023-08-07T19:13:29.178Z,100639.44
2023-08-07T19:15:57.266Z,100649.50
2023-08-07T19:18:24.670Z,100653.69
2023-08-07T19:20:52.202Z,100648.00
2023-08-07T19:23:19.072Z,100665.81
2023-08-07T19:25:46.006Z,100671.19
2023-08-07T19:28:13.834Z,100661.63
2023-08-07T19:30:40.698Z,100651.88
2023-08-07T19:33:10.770Z,100670.34
2023-08-07T19:35:38.301Z,100654.75
2023-08-07T19:38:05.001Z,100668.50
2023-08-07T19:40:31.776Z,100670.69
2023-08-07T19:42:58.366Z,100672.38
2023-08-07T19:45:24.935Z,100662.47
2023-08-07T19:47:51.490Z,100639.19
2023-08-07T19:50:17.989Z,100660.59
2023-08-07T19:52:44.440Z,100657.81
2023-08-07T19:55:11.450Z,100679.34
2023-08-07T19:57:38.858Z,100647.66
2023-08-07T20:00:06.624Z,100650.88
2023-08-07T20:02:34.225Z,100685.34
2023-08-07T20:05:00.970Z,100690.53
2023-08-07T20:07:27.694Z,100684.16
2023-08-07T20:09:54.189Z,100675.06
2023-08-07T20:12:21.850Z,100642.59
2023-08-07T20:14:48.538Z,100666.34
2023-08-07T20:17:15.098Z,100647.41
2023-08-07T20:19:41.695Z,100676.41
2023-08-07T20:22:08.450Z,100681.78
2023-08-07T20:24:34.960Z,100676.22
2023-08-07T20:27:01.489Z,100672.03
2023-08-07T20:29:28.505Z,100658.63
2023-08-07T20:31:55.009Z,100678.19
2023-08-07T20:34:21.549Z,100663.78
2023-08-07T20:36:48.051Z,100679.69
2023-08-07T20:39:14.865Z,100644.47
2023-08-07T20:41:41.378Z,100669.09
2023-08-07T20:44:07.827Z,100680.66
2023-08-07T20:46:34.307Z,100680.09
2023-08-07T20:49:01.052Z,100688.66
2023-08-07T20:51:27.572Z,100663.94
2023-08-07T20:53:54.017Z,100642.50
2023-08-07T20:56:20.579Z,100659.88
2023-08-07T20:58:47.167Z,100664.25
2023-08-07T21:01:13.779Z,100675.31
2023-08-07T21:03:40.314Z,100662.88
2023-08-07T21:06:06.776Z,100638.50
2023-08-07T21:08:33.443Z,100668.75
2023-08-07T21:11:00.065Z,100675.59
2023-08-07T21:13:26.520Z,100679.78
2023-08-07T21:15:53.036Z,100677.94
2023-08-07T21:18:19.685Z,100654.97
2023-08-07T21:20:46.374Z,100681.09
2023-08-07T21:23:16.630Z,100677.88
2023-08-07T21:25:43.335Z,100674.81
2023-08-07T21:28:10.630Z,100685.03
2023-08-07T21:30:37.716Z,100662.84
2023-08-07T21:33:04.967Z,100675.94
2023-08-07T21:35:31.650Z,100664.88
2023-08-07T21:37:58.170Z,100671.56
2023-08-07T21:40:24.868Z,100650.97
2023-08-07T21:42:51.491Z,100661.28
2023-08-07T21:45:18.051Z,100644.81
2023-08-07T21:47:45.511Z,100664.44
2023-08-07T21:50:12.423Z,100629.44
2023-08-07T21:52:39.038Z,100661.84
2023-08-07T21:55:06.070Z,100652.19
2023-08-07T21:57:34.016Z,100609.28
2023-08-07T22:00:00.731Z,100631.84
2023-08-07T22:02:27.565Z,100665.50
2023-08-07T22:04:54.265Z,100644.31
2023-08-07T22:07:20.751Z,100621.72
2023-08-07T22:09:47.385Z,100632.63
2023-08-07T22:12:13.945Z,100581.09
2023-08-07T22:14:40.458Z,100579.59
2023-08-07T22:17:07.938Z,100639.88
2023-08-07T22:19:34.955Z,100639.41
2023-08-07T22:22:02.287Z,100643.28
2023-08-07T22:24:28.900Z,100631.25
2023-08-07T22:26:55.362Z,100628.75
2023-08-07T22:29:21.836Z,100638.66
2023-08-07T22:31:48.337Z,100626.22
2023-08-07T22:34:15.039Z,100648.75
2023-08-07T22:36:41.586Z,100614.81
2023-08-07T22:39:08.109Z,100625.38
2023-08-07T22:41:34.918Z,100614.97
2023-08-07T22:44:02.103Z,100633.94
2023-08-07T22:46:28.646Z,100625.56
2023-08-07T22:48:55.275Z,100639.31
2023-08-07T22:51:21.926Z,100620.31
2023-08-07T22:53:48.481Z,100632.91
2023-08-07T22:56:14.986Z,100634.94
2023-08-07T22:58:41.615Z,100641.84
2023-08-07T23:01:08.674Z,100641.19
2023-08-07T23:03:35.180Z,100643.88
2023-08-07T23:06:01.960Z,100647.94
2023-08-07T23:08:28.449Z,100644.09
2023-08-07T23:10:54.982Z,100636.41
2023-08-07T23:13:21.556Z,100608.19
2023-08-07T23:15:48.244Z,100643.94
2023-08-07T23:18:15.067Z,100648.38
2023-08-07T23:20:41.752Z,100652.44
2023-08-07T23:23:08.325Z,100660.44
2023-08-07T23:25:35.578Z,100647.22
2023-08-07T23:28:02.628Z,100638.06
2023-08-07T23:30:30.063Z,100609.97
2023-08-07T23:32:56.718Z,100633.59
2023-08-07T23:35:23.322Z,100616.00
2023-08-07T23:37:49.830Z,100623.75
2023-08-07T23:40:16.333Z,100619.41
2023-08-07T23:42:42.921Z,100628.47
2023-08-07T23:45:09.894Z,100569.66
2023-08-07T23:47:36.758Z,100622.16
2023-08-07T23:50:03.442Z,100622.50
2023-08-07T23:52:30.248Z,100636.09
2023-08-07T23:54:56.759Z,100611.59
2023-08-07T23:57:23.323Z,100636.09
2023-08-07T23:59:53.551Z,100615.59
